Time;durP1;ratioP1;P1;durP2;ratioP2;P2;SDS_P1;SDS_P2;PMS_P1;PMS_P2;Temp;Humidity;BMP_temperature;BMP_pressure;BME280_temperature;BME280_humidity;BME280_pressure;Samples;Min_cycle;Max_cycle;Signal;HPM_P1;HPM_P2
2021/03/12 00:00:27;;;;;;;20.90;3.20;;;;;;;;;;5025073;27;39198;-74
2021/03/12 00:02:53;;;;;;;26.73;3.33;;;;;;;;;;5029038;28;39682;-77
2021/03/12 00:05:19;;;;;;;22.97;3.07;;;;;;;;;;5043785;28;36436;-75
2021/03/12 00:07:46;;;;;;;18.87;3.87;;;;;;;;;;5043952;27;39089;-76
2021/03/12 00:10:14;;;;;;;19.37;3.17;;;;;;;;;;5030566;28;38560;-75
2021/03/12 00:12:41;;;;;;;21.63;2.57;;;;;;;;;;5029378;28;38459;-74
2021/03/12 00:15:13;;;;;;;24.20;3.97;;;;;;;;;;5024716;28;36219;-75
2021/03/12 00:17:39;;;;;;;21.73;3.10;;;;;;;;;;5027313;28;38509;-78
2021/03/12 00:20:08;;;;;;;25.50;4.93;;;;;;;;;;5022798;28;37953;-76
2021/03/12 00:22:34;;;;;;;32.27;4.93;;;;;;;;;;5033407;28;38340;-75
2021/03/12 00:25:00;;;;;;;21.13;4.03;;;;;;;;;;5024041;28;37672;-75
2021/03/12 00:27:26;;;;;;;30.83;3.80;;;;;;;;;;5044455;28;40039;-75
2021/03/12 00:29:53;;;;;;;19.47;2.97;;;;;;;;;;5026302;27;38586;-77
2021/03/12 00:32:20;;;;;;;19.27;4.40;;;;;;;;;;5023938;28;38907;-76
2021/03/12 00:34:46;;;;;;;21.67;3.63;;;;;;;;;;5025567;28;38621;-75
2021/03/12 00:37:12;;;;;;;15.40;2.97;;;;;;;;;;5020788;28;38400;-78
2021/03/12 00:39:39;;;;;;;14.53;3.00;;;;;;;;;;5018884;28;38883;-74
2021/03/12 00:42:07;;;;;;;19.83;3.50;;;;;;;;;;5025278;28;39306;-75
2021/03/12 00:44:34;;;;;;;25.63;3.63;;;;;;;;;;5025202;28;38700;-79
2021/03/12 00:47:00;;;;;;;19.03;3.10;;;;;;;;;;5026009;28;39081;-76
2021/03/12 00:49:27;;;;;;;19.87;3.00;;;;;;;;;;5045149;28;47529;-74
2021/03/12 00:51:53;;;;;;;16.20;3.80;;;;;;;;;;5081330;27;38763;-74
2021/03/12 00:54:20;;;;;;;23.20;2.87;;;;;;;;;;5054967;27;37999;-76
2021/03/12 00:56:46;;;;;;;16.27;2.90;;;;;;;;;;5046628;27;38564;-74
2021/03/12 00:59:12;;;;;;;16.87;2.90;;;;;;;;;;5050620;27;39138;-77
2021/03/12 01:01:39;;;;;;;22.50;3.63;;;;;;;;;;5039253;28;38866;-77
2021/03/12 01:04:05;;;;;;;23.13;3.80;;;;;;;;;;5039966;28;37557;-76
2021/03/12 01:06:32;;;;;;;22.80;3.37;;;;;;;;;;5040771;28;39983;-74
2021/03/12 01:08:58;;;;;;;22.03;4.87;;;;;;;;;;5041862;28;39291;-75
2021/03/12 01:11:24;;;;;;;19.87;3.60;;;;;;;;;;5041759;28;37041;-77
2021/03/12 01:13:51;;;;;;;22.07;3.73;;;;;;;;;;5043180;28;36585;-75
2021/03/12 01:16:17;;;;;;;13.73;2.20;;;;;;;;;;5048339;27;39953;-74
2021/03/12 01:18:44;;;;;;;16.30;2.80;;;;;;;;;;5023462;28;38534;-76
2021/03/12 01:21:10;;;;;;;20.00;3.47;;;;;;;;;;5030696;27;37774;-74
2021/03/12 01:23:36;;;;;;;17.90;3.07;;;;;;;;;;5030885;28;37413;-77
2021/03/12 01:26:03;;;;;;;25.20;3.87;;;;;;;;;;5044421;28;39487;-75
2021/03/12 01:28:29;;;;;;;21.13;3.63;;;;;;;;;;5036594;28;39218;-75
2021/03/12 01:30:56;;;;;;;25.70;3.93;;;;;;;;;;5044006;28;39041;-76
2021/03/12 01:33:22;;;;;;;20.77;3.20;;;;;;;;;;5048602;27;35361;-75
2021/03/12 01:35:49;;;;;;;20.90;3.60;;;;;;;;;;5045838;27;38754;-74
2021/03/12 01:38:15;;;;;;;24.60;3.07;;;;;;;;;;5044180;28;38193;-76
2021/03/12 01:40:45;;;;;;;18.73;2.97;;;;;;;;;;5048741;27;39917;-75
2021/03/12 01:43:12;;;;;;;22.70;2.50;;;;;;;;;;5028484;28;36958;-76
2021/03/12 01:45:38;;;;;;;15.87;2.63;;;;;;;;;;5033764;28;38605;-76
2021/03/12 01:48:06;;;;;;;12.47;2.30;;;;;;;;;;5044819;27;38048;-76
2021/03/12 01:50:33;;;;;;;27.27;3.10;;;;;;;;;;5046338;27;38344;-76
2021/03/12 01:52:59;;;;;;;23.27;3.00;;;;;;;;;;5045323;28;36730;-77
2021/03/12 01:55:31;;;;;;;16.93;2.60;;;;;;;;;;5046245;28;37882;-78
2021/03/12 01:57:57;;;;;;;17.20;3.20;;;;;;;;;;5050402;27;38450;-76
2021/03/12 02:00:24;;;;;;;21.43;3.20;;;;;;;;;;5039012;27;38033;-73
2021/03/12 02:02:50;;;;;;;25.37;3.13;;;;;;;;;;5061002;27;37128;-75
2021/03/12 02:05:17;;;;;;;21.37;3.23;;;;;;;;;;5042384;27;39767;-78
2021/03/12 02:07:43;;;;;;;24.47;3.37;;;;;;;;;;5052841;27;37845;-76
2021/03/12 02:10:11;;;;;;;20.33;3.03;;;;;;;;;;5038538;28;38325;-77
2021/03/12 02:12:44;;;;;;;16.93;2.90;;;;;;;;;;5040501;27;36924;-77
2021/03/12 02:15:31;;;;;;;19.90;2.83;;;;;;;;;;5030819;28;37816;-80
2021/03/12 02:18:07;;;;;;;21.60;2.80;;;;;;;;;;5027896;28;39109;-75
2021/03/12 02:20:36;;;;;;;17.67;4.83;;;;;;;;;;5023915;28;49864;-75
2021/03/12 02:23:19;;;;;;;18.67;3.57;;;;;;;;;;5037155;28;37298;-75
2021/03/12 02:25:56;;;;;;;15.07;3.23;;;;;;;;;;5032950;28;39928;-76
2021/03/12 02:28:22;;;;;;;21.00;2.87;;;;;;;;;;5023205;28;39363;-76
2021/03/12 02:30:49;;;;;;;23.70;2.67;;;;;;;;;;5015559;28;37737;-75
2021/03/12 02:33:15;;;;;;;16.77;2.80;;;;;;;;;;5020505;28;36337;-79
2021/03/12 02:35:42;;;;;;;24.27;3.90;;;;;;;;;;5023478;28;39230;-79
2021/03/12 02:38:09;;;;;;;23.07;3.37;;;;;;;;;;5031606;28;39852;-76
2021/03/12 02:40:35;;;;;;;21.60;3.83;;;;;;;;;;5025643;28;36320;-77
2021/03/12 02:43:02;;;;;;;19.13;2.80;;;;;;;;;;5020521;28;36664;-78
2021/03/12 02:45:29;;;;;;;25.27;3.40;;;;;;;;;;5027426;28;40576;-77
2021/03/12 02:47:55;;;;;;;20.33;2.97;;;;;;;;;;5020312;28;38272;-76
2021/03/12 02:50:22;;;;;;;16.53;3.23;;;;;;;;;;5026190;28;39964;-77
2021/03/12 02:52:49;;;;;;;19.87;2.70;;;;;;;;;;5024961;28;37113;-76
2021/03/12 02:55:17;;;;;;;23.80;3.43;;;;;;;;;;5031477;28;40317;-74
2021/03/12 02:57:43;;;;;;;23.00;3.00;;;;;;;;;;5031326;28;38740;-75
2021/03/12 03:00:10;;;;;;;26.40;3.00;;;;;;;;;;5017921;28;38999;-77
2021/03/12 03:02:37;;;;;;;20.13;2.90;;;;;;;;;;5030783;28;38532;-74
2021/03/12 03:05:05;;;;;;;16.53;3.03;;;;;;;;;;5029049;28;39553;-74
2021/03/12 03:07:31;;;;;;;18.43;2.43;;;;;;;;;;5021461;28;46970;-73
2021/03/12 03:09:58;;;;;;;24.50;3.90;;;;;;;;;;5023092;28;38538;-75
2021/03/12 03:12:26;;;;;;;20.70;3.63;;;;;;;;;;5032459;28;35990;-74
2021/03/12 03:14:55;;;;;;;16.83;2.97;;;;;;;;;;5029647;28;38168;-75
2021/03/12 03:17:22;;;;;;;16.30;2.93;;;;;;;;;;5024948;28;39243;-75
2021/03/12 03:19:50;;;;;;;21.77;2.93;;;;;;;;;;5025472;28;37906;-76
2021/03/12 03:22:17;;;;;;;19.20;2.60;;;;;;;;;;5024315;28;35699;-77
2021/03/12 03:24:44;;;;;;;20.47;4.03;;;;;;;;;;5032508;28;39113;-75
2021/03/12 03:27:11;;;;;;;18.70;2.57;;;;;;;;;;5028975;28;38974;-74
2021/03/12 03:29:38;;;;;;;15.70;2.30;;;;;;;;;;5019674;28;37097;-74
2021/03/12 03:32:04;;;;;;;18.83;2.87;;;;;;;;;;5032100;28;36841;-74
2021/03/12 03:34:31;;;;;;;18.07;2.50;;;;;;;;;;5027449;28;39459;-75
2021/03/12 03:36:57;;;;;;;13.83;2.50;;;;;;;;;;5043528;28;38904;-75
2021/03/12 03:39:24;;;;;;;22.37;3.57;;;;;;;;;;5036048;28;37801;-74
2021/03/12 03:41:51;;;;;;;17.40;2.53;;;;;;;;;;5044550;28;36879;-75
2021/03/12 03:44:19;;;;;;;15.67;2.33;;;;;;;;;;5049213;27;39904;-78
2021/03/12 03:46:46;;;;;;;26.83;3.00;;;;;;;;;;5046660;28;39145;-74
2021/03/12 03:49:14;;;;;;;16.10;2.77;;;;;;;;;;5041275;28;38211;-74
2021/03/12 03:51:41;;;;;;;14.77;2.60;;;;;;;;;;5048392;28;37103;-76
2021/03/12 03:54:08;;;;;;;28.63;3.80;;;;;;;;;;5046357;27;40079;-76
2021/03/12 03:56:37;;;;;;;14.27;2.80;;;;;;;;;;5057491;27;39081;-76
2021/03/12 03:59:05;;;;;;;16.23;3.10;;;;;;;;;;5053841;27;38890;-75
2021/03/12 04:01:32;;;;;;;21.00;3.07;;;;;;;;;;5047705;28;36353;-76
2021/03/12 04:03:59;;;;;;;25.93;3.50;;;;;;;;;;5057998;27;38898;-74
2021/03/12 04:06:30;;;;;;;19.33;3.23;;;;;;;;;;5045715;27;37288;-76
2021/03/12 04:08:58;;;;;;;19.97;2.30;;;;;;;;;;5045488;27;39017;-75
2021/03/12 04:11:24;;;;;;;24.70;3.63;;;;;;;;;;5054501;27;37829;-75
2021/03/12 04:13:51;;;;;;;17.13;3.37;;;;;;;;;;5047655;27;39732;-75
2021/03/12 04:16:18;;;;;;;29.07;3.73;;;;;;;;;;5055576;27;38879;-76
2021/03/12 04:18:45;;;;;;;23.67;3.73;;;;;;;;;;5050753;27;40120;-75
2021/03/12 04:21:11;;;;;;;21.80;2.87;;;;;;;;;;5054727;27;37272;-76
2021/03/12 04:23:38;;;;;;;21.97;2.97;;;;;;;;;;5050213;27;39746;-76
2021/03/12 04:26:05;;;;;;;12.87;3.17;;;;;;;;;;5049624;27;39654;-76
2021/03/12 04:28:32;;;;;;;21.43;3.13;;;;;;;;;;5050616;27;39816;-75
2021/03/12 04:30:58;;;;;;;19.77;2.83;;;;;;;;;;5051845;27;37120;-76
2021/03/12 04:33:25;;;;;;;16.13;2.73;;;;;;;;;;5042311;27;39979;-75
2021/03/12 04:35:51;;;;;;;22.47;3.20;;;;;;;;;;5055050;27;39078;-76
2021/03/12 04:38:18;;;;;;;19.20;3.10;;;;;;;;;;5047448;28;38206;-75
2021/03/12 04:40:44;;;;;;;25.93;3.90;;;;;;;;;;5054973;27;37434;-75
2021/03/12 04:43:11;;;;;;;25.23;3.33;;;;;;;;;;5043056;27;39702;-76
2021/03/12 04:45:37;;;;;;;15.13;2.87;;;;;;;;;;5042800;28;39106;-75
2021/03/12 04:48:04;;;;;;;21.80;2.77;;;;;;;;;;5042506;28;38178;-74
2021/03/12 04:50:31;;;;;;;15.53;3.07;;;;;;;;;;5046411;28;37313;-74
2021/03/12 04:52:58;;;;;;;21.00;2.97;;;;;;;;;;5044081;28;40812;-76
2021/03/12 04:55:25;;;;;;;24.77;3.10;;;;;;;;;;5052796;27;38907;-75
2021/03/12 04:57:51;;;;;;;18.30;2.53;;;;;;;;;;5054857;27;40519;-74
2021/03/12 05:00:19;;;;;;;17.33;2.73;;;;;;;;;;5046123;28;36996;-75
2021/03/12 05:02:45;;;;;;;30.17;3.37;;;;;;;;;;5041996;28;41202;-75
2021/03/12 05:05:12;;;;;;;25.67;3.23;;;;;;;;;;5044189;28;40750;-75
2021/03/12 05:07:39;;;;;;;22.13;3.10;;;;;;;;;;5071425;27;38640;-75
2021/03/12 05:10:07;;;;;;;21.30;2.73;;;;;;;;;;5019617;28;36587;-75
2021/03/12 05:12:33;;;;;;;21.47;3.30;;;;;;;;;;5035526;28;39665;-75
2021/03/12 05:15:00;;;;;;;22.40;2.57;;;;;;;;;;5024223;28;39779;-77
2021/03/12 05:17:27;;;;;;;16.77;3.47;;;;;;;;;;5022618;28;38560;-75
2021/03/12 05:19:53;;;;;;;22.07;3.37;;;;;;;;;;5019459;28;38478;-78
2021/03/12 05:22:20;;;;;;;20.47;2.97;;;;;;;;;;5028681;27;38874;-75
2021/03/12 05:24:46;;;;;;;20.77;3.20;;;;;;;;;;5033337;28;39222;-75
2021/03/12 05:27:13;;;;;;;19.10;2.50;;;;;;;;;;5025504;28;38185;-75
2021/03/12 05:29:39;;;;;;;19.83;3.07;;;;;;;;;;5027175;28;37636;-74
2021/03/12 05:32:06;;;;;;;20.47;2.90;;;;;;;;;;5020102;28;39774;-75
2021/03/12 05:34:32;;;;;;;15.00;2.27;;;;;;;;;;5027139;28;39398;-75
2021/03/12 05:36:59;;;;;;;23.53;2.87;;;;;;;;;;5026012;28;39196;-75
2021/03/12 05:39:25;;;;;;;17.23;3.00;;;;;;;;;;5029358;27;37644;-75
2021/03/12 05:41:51;;;;;;;24.03;2.53;;;;;;;;;;5027313;28;39714;-75
2021/03/12 05:44:18;;;;;;;23.00;3.10;;;;;;;;;;5026955;27;39106;-75
2021/03/12 05:46:45;;;;;;;25.90;3.87;;;;;;;;;;5018237;28;37478;-74
2021/03/12 05:49:14;;;;;;;16.23;3.20;;;;;;;;;;5027389;27;37737;-75
2021/03/12 05:51:40;;;;;;;18.27;3.07;;;;;;;;;;5041612;28;38718;-74
2021/03/12 05:54:07;;;;;;;23.67;3.80;;;;;;;;;;5044071;27;39024;-76
2021/03/12 05:56:34;;;;;;;15.47;3.03;;;;;;;;;;5044156;27;39594;-78
2021/03/12 05:59:00;;;;;;;21.50;3.87;;;;;;;;;;5038256;28;37444;-74
2021/03/12 06:01:26;;;;;;;21.10;3.53;;;;;;;;;;5038128;28;39330;-76
2021/03/12 06:03:53;;;;;;;17.73;3.37;;;;;;;;;;5045400;28;39294;-75
2021/03/12 06:06:19;;;;;;;21.37;2.83;;;;;;;;;;5019631;28;38525;-75
2021/03/12 06:08:46;;;;;;;27.60;3.60;;;;;;;;;;5035453;28;36979;-74
2021/03/12 06:11:12;;;;;;;25.03;3.43;;;;;;;;;;5043195;28;40031;-75
2021/03/12 06:13:52;;;;;;;24.83;3.67;;;;;;;;;;5056607;27;39618;-75
2021/03/12 06:16:25;;;;;;;21.97;3.33;;;;;;;;;;5035231;28;38689;-73
2021/03/12 06:19:11;;;;;;;17.33;3.10;;;;;;;;;;5041778;28;37470;-76
2021/03/12 06:21:38;;;;;;;20.37;3.10;;;;;;;;;;5030283;28;48314;-74
2021/03/12 06:24:22;;;;;;;30.37;4.77;;;;;;;;;;5018221;28;39284;-74
2021/03/12 06:26:49;;;;;;;18.87;3.63;;;;;;;;;;5032637;28;39818;-75
2021/03/12 06:29:15;;;;;;;21.20;4.20;;;;;;;;;;5018660;28;37316;-76
2021/03/12 06:31:52;;;;;;;18.37;5.03;;;;;;;;;;5026657;28;38880;-75
2021/03/12 06:34:18;;;;;;;24.17;3.83;;;;;;;;;;5016861;28;38596;-75
2021/03/12 06:36:45;;;;;;;22.00;3.73;;;;;;;;;;5030576;28;39941;-75
2021/03/12 06:39:12;;;;;;;24.73;4.07;;;;;;;;;;5027407;28;38490;-74
2021/03/12 06:41:39;;;;;;;26.37;4.50;;;;;;;;;;5043408;28;39500;-76
2021/03/12 06:44:24;;;;;;;20.57;3.70;;;;;;;;;;5054066;28;38708;-74
2021/03/12 06:46:50;;;;;;;28.33;4.40;;;;;;;;;;5038110;28;37937;-74
2021/03/12 06:49:17;;;;;;;22.20;3.30;;;;;;;;;;5041119;28;37030;-77
2021/03/12 06:51:59;;;;;;;25.87;4.20;;;;;;;;;;5044998;28;38799;-78
2021/03/12 06:54:26;;;;;;;30.20;4.10;;;;;;;;;;5064205;28;39061;-74
2021/03/12 06:56:53;;;;;;;34.90;3.83;;;;;;;;;;5046462;28;38186;-79
2021/03/12 06:59:45;;;;;;;42.37;6.20;;;;;;;;;;5044403;28;36965;-77
2021/03/12 07:02:12;;;;;;;20.60;3.90;;;;;;;;;;5033413;28;39791;-77
2021/03/12 07:04:39;;;;;;;20.70;3.90;;;;;;;;;;5025615;28;39854;-76
2021/03/12 07:07:05;;;;;;;25.90;3.83;;;;;;;;;;5022973;28;39828;-77
2021/03/12 07:09:32;;;;;;;28.67;4.13;;;;;;;;;;5025767;28;37293;-75
2021/03/12 07:11:59;;;;;;;27.73;4.73;;;;;;;;;;5023956;28;39968;-78
2021/03/12 07:14:26;;;;;;;28.67;4.30;;;;;;;;;;5035191;28;39088;-77
2021/03/12 07:16:52;;;;;;;22.83;3.80;;;;;;;;;;5023855;28;38945;-76
2021/03/12 07:19:19;;;;;;;19.17;3.43;;;;;;;;;;5034109;28;37242;-77
2021/03/12 07:21:49;;;;;;;24.27;3.33;;;;;;;;;;5020071;28;38823;-76
2021/03/12 07:24:18;;;;;;;27.50;4.37;;;;;;;;;;5017057;28;39398;-76
2021/03/12 07:26:46;;;;;;;32.97;4.37;;;;;;;;;;5033582;28;39172;-76
2021/03/12 07:29:13;;;;;;;21.93;3.23;;;;;;;;;;5036489;28;37226;-77
2021/03/12 07:31:41;;;;;;;31.30;4.93;;;;;;;;;;5022817;28;39677;-77
2021/03/12 07:34:17;;;;;;;26.43;6.07;;;;;;;;;;5034862;28;37303;-76
2021/03/12 07:36:48;;;;;;;30.47;4.53;;;;;;;;;;5025907;28;38367;-75
2021/03/12 07:39:22;;;;;;;21.07;3.33;;;;;;;;;;5036798;28;37382;-76
2021/03/12 07:41:48;;;;;;;31.00;4.13;;;;;;;;;;5021091;28;38140;-75
2021/03/12 07:44:16;;;;;;;19.40;4.00;;;;;;;;;;5034829;28;38974;-76
2021/03/12 07:46:44;;;;;;;29.33;5.57;;;;;;;;;;5021835;28;38484;-76
2021/03/12 07:49:29;;;;;;;24.90;4.07;;;;;;;;;;5028941;28;38596;-75
2021/03/12 07:51:56;;;;;;;20.47;3.97;;;;;;;;;;5037184;28;39807;-76
2021/03/12 07:54:40;;;;;;;27.77;4.10;;;;;;;;;;5016726;28;38517;-76
2021/03/12 07:57:11;;;;;;;30.10;3.37;;;;;;;;;;5037998;28;37617;-77
2021/03/12 07:59:47;;;;;;;34.93;4.20;;;;;;;;;;5025054;28;36701;-76
2021/03/12 08:02:13;;;;;;;30.93;5.33;;;;;;;;;;5025043;28;39505;-75
2021/03/12 08:04:40;;;;;;;24.10;3.73;;;;;;;;;;5022691;28;38844;-75
2021/03/12 08:07:19;;;;;;;21.60;3.70;;;;;;;;;;5008223;28;39343;-82
2021/03/12 08:09:46;;;;;;;24.27;4.20;;;;;;;;;;5039404;28;37829;-76
2021/03/12 08:12:31;;;;;;;21.13;3.53;;;;;;;;;;5020893;28;38915;-75
2021/03/12 08:15:10;;;;;;;25.07;4.57;;;;;;;;;;5025442;28;39584;-75
2021/03/12 08:17:36;;;;;;;21.97;3.77;;;;;;;;;;5021715;28;48747;-75
2021/03/12 08:20:26;;;;;;;24.70;5.03;;;;;;;;;;5024764;28;36952;-75
2021/03/12 08:23:01;;;;;;;27.40;4.43;;;;;;;;;;5011474;28;49236;-76
2021/03/12 08:25:36;;;;;;;25.70;4.60;;;;;;;;;;5022564;28;47448;-74
2021/03/12 08:28:03;;;;;;;31.17;4.80;;;;;;;;;;5037684;28;38936;-77
2021/03/12 08:30:35;;;;;;;28.10;5.87;;;;;;;;;;5026822;28;37566;-75
2021/03/12 08:33:05;;;;;;;37.88;5.30;;;;;;;;;;5015980;28;39165;-76
2021/03/12 08:35:37;;;;;;;27.63;4.97;;;;;;;;;;5022013;28;47334;-78
2021/03/12 08:38:05;;;;;;;29.67;5.20;;;;;;;;;;5030151;28;39903;-77
2021/03/12 08:40:32;;;;;;;23.67;4.27;;;;;;;;;;5022044;28;36788;-78
2021/03/12 08:42:59;;;;;;;28.47;5.10;;;;;;;;;;5016133;28;37903;-79
2021/03/12 08:45:52;;;;;;;26.23;5.10;;;;;;;;;;5020074;28;38783;-75
2021/03/12 08:48:19;;;;;;;34.83;5.60;;;;;;;;;;5013847;28;39668;-75
2021/03/12 08:50:56;;;;;;;28.07;5.07;;;;;;;;;;5030756;28;35549;-77
2021/03/12 08:53:23;;;;;;;33.00;6.60;;;;;;;;;;5017905;28;40894;-77
2021/03/12 08:55:50;;;;;;;31.30;5.50;;;;;;;;;;5018965;28;39641;-78
2021/03/12 08:58:17;;;;;;;34.07;6.07;;;;;;;;;;5024945;28;38017;-75
2021/03/12 09:00:44;;;;;;;20.33;4.80;;;;;;;;;;5016614;28;37223;-76
2021/03/12 09:03:15;;;;;;;31.83;5.67;;;;;;;;;;5022798;28;39685;-75
2021/03/12 09:05:41;;;;;;;24.23;4.90;;;;;;;;;;5015485;28;38470;-75
2021/03/12 09:08:08;;;;;;;35.90;6.50;;;;;;;;;;5037377;28;37225;-75
2021/03/12 09:10:34;;;;;;;24.17;4.10;;;;;;;;;;5025320;28;37498;-76
2021/03/12 09:13:01;;;;;;;27.27;4.43;;;;;;;;;;5042336;28;39476;-78
2021/03/12 09:15:28;;;;;;;23.50;4.30;;;;;;;;;;5018669;28;39235;-76
2021/03/12 09:17:58;;;;;;;25.20;4.53;;;;;;;;;;5042068;28;38916;-74
2021/03/12 09:20:25;;;;;;;25.30;4.20;;;;;;;;;;5030989;28;37357;-75
2021/03/12 09:22:53;;;;;;;25.30;4.00;;;;;;;;;;5033207;28;41042;-75
2021/03/12 09:25:32;;;;;;;38.10;5.10;;;;;;;;;;5038903;28;39220;-77
2021/03/12 09:27:59;;;;;;;26.17;4.40;;;;;;;;;;5041557;28;39217;-76
2021/03/12 09:30:28;;;;;;;31.90;4.40;;;;;;;;;;5050888;28;38542;-73
2021/03/12 09:32:54;;;;;;;44.17;5.90;;;;;;;;;;5048311;27;38134;-78
2021/03/12 09:35:21;;;;;;;37.13;5.23;;;;;;;;;;5024413;28;37121;-79
2021/03/12 09:37:47;;;;;;;26.27;4.70;;;;;;;;;;5058859;28;39403;-76
2021/03/12 09:40:30;;;;;;;25.03;4.30;;;;;;;;;;5040142;28;38536;-75
2021/03/12 09:42:56;;;;;;;30.92;5.18;;;;;;;;;;5054467;28;39986;-76
2021/03/12 09:45:23;;;;;;;26.70;4.47;;;;;;;;;;5042142;28;38869;-75
2021/03/12 09:47:51;;;;;;;20.80;4.10;;;;;;;;;;5048578;27;37348;-76
2021/03/12 09:50:18;;;;;;;25.87;4.63;;;;;;;;;;5023862;28;37570;-75
2021/03/12 09:52:46;;;;;;;25.50;4.20;;;;;;;;;;5020396;28;39675;-77
2021/03/12 09:55:13;;;;;;;20.70;3.60;;;;;;;;;;5020112;28;38818;-76
2021/03/12 09:57:39;;;;;;;20.83;3.80;;;;;;;;;;5033473;28;39005;-77
2021/03/12 10:00:07;;;;;;;22.17;4.13;;;;;;;;;;5034051;28;37160;-75
2021/03/12 10:02:33;;;;;;;15.93;3.40;;;;;;;;;;5047500;28;40841;-74
2021/03/12 10:05:02;;;;;;;24.10;5.20;;;;;;;;;;5071635;28;38903;-75
2021/03/12 10:07:39;;;;;;;19.70;3.93;;;;;;;;;;5028428;28;39256;-74
2021/03/12 10:10:22;;;;;;;24.97;4.97;;;;;;;;;;5041683;28;37752;-75
2021/03/12 10:12:48;;;;;;;;;;;;;;;;;;5056993;27;39754;-75
2021/03/12 10:15:19;;;;;;;29.67;4.00;;;;;;;;;;5045953;28;38650;-74
2021/03/12 10:17:46;;;;;;;23.80;5.17;;;;;;;;;;5044136;28;36813;-74
2021/03/12 10:20:32;;;;;;;17.43;3.43;;;;;;;;;;5042151;28;38509;-74
2021/03/12 10:23:00;;;;;;;19.70;3.63;;;;;;;;;;5052412;28;38387;-75
2021/03/12 10:25:30;;;;;;;18.70;3.87;;;;;;;;;;5045847;28;39563;-78
2021/03/12 10:27:58;;;;;;;17.77;3.70;;;;;;;;;;5057199;28;37848;-75
2021/03/12 10:30:27;;;;;;;22.43;3.90;;;;;;;;;;5041422;28;36590;-75
2021/03/12 10:32:54;;;;;;;19.93;3.67;;;;;;;;;;5038811;28;38562;-76
2021/03/12 10:35:31;;;;;;;17.17;3.70;;;;;;;;;;5048385;28;37586;-74
2021/03/12 10:38:00;;;;;;;16.83;3.83;;;;;;;;;;5027232;28;37572;-74
2021/03/12 10:40:27;;;;;;;24.17;3.27;;;;;;;;;;5027083;28;35457;-75
2021/03/12 10:42:55;;;;;;;15.53;3.60;;;;;;;;;;5035129;28;37918;-75
2021/03/12 10:45:29;;;;;;;20.50;3.63;;;;;;;;;;5009895;28;38803;-76
2021/03/12 10:47:57;;;;;;;21.90;3.97;;;;;;;;;;5035132;28;36927;-78
2021/03/12 10:50:24;;;;;;;20.33;3.73;;;;;;;;;;5036006;28;35564;-78
2021/03/12 10:52:50;;;;;;;20.57;4.57;;;;;;;;;;5024788;28;39219;-76
2021/03/12 10:55:17;;;;;;;23.63;4.40;;;;;;;;;;5023348;28;38570;-76
2021/03/12 10:57:47;;;;;;;18.90;3.83;;;;;;;;;;5021920;28;39268;-75
2021/03/12 11:00:15;;;;;;;21.73;4.07;;;;;;;;;;5015890;28;37608;-76
2021/03/12 11:02:42;;;;;;;25.20;4.43;;;;;;;;;;5012220;28;38779;-79
2021/03/12 11:05:09;;;;;;;22.73;4.17;;;;;;;;;;5024078;28;39293;-78
2021/03/12 11:07:36;;;;;;;16.30;2.83;;;;;;;;;;5025460;28;38108;-77
2021/03/12 11:10:03;;;;;;;24.27;4.70;;;;;;;;;;5035581;28;36137;-77
2021/03/12 11:12:55;;;;;;;22.43;4.17;;;;;;;;;;5021926;28;46872;-78
2021/03/12 11:15:22;;;;;;;30.17;5.30;;;;;;;;;;5003815;28;37618;-76
2021/03/12 11:17:48;;;;;;;24.63;5.80;;;;;;;;;;5013160;28;38769;-78
2021/03/12 11:20:20;;;;;;;24.37;5.77;;;;;;;;;;5025344;28;38175;-79
2021/03/12 11:22:47;;;;;;;16.90;4.23;;;;;;;;;;5027820;28;38844;-79
2021/03/12 11:25:14;;;;;;;23.63;5.13;;;;;;;;;;5027068;28;38880;-79
2021/03/12 11:27:40;;;;;;;28.67;5.27;;;;;;;;;;5033093;28;38393;-77
2021/03/12 11:30:09;;;;;;;22.73;4.80;;;;;;;;;;5023381;28;36510;-80
2021/03/12 11:32:35;;;;;;;21.47;4.47;;;;;;;;;;5031220;28;37902;-79
2021/03/12 11:35:02;;;;;;;22.13;4.27;;;;;;;;;;5020915;28;39798;-78
2021/03/12 11:37:28;;;;;;;18.77;4.70;;;;;;;;;;5032129;28;37041;-80
2021/03/12 11:39:55;;;;;;;21.07;4.20;;;;;;;;;;5046919;28;37273;-78
2021/03/12 11:42:21;;;;;;;22.13;4.90;;;;;;;;;;5030079;28;38775;-77
2021/03/12 11:44:48;;;;;;;18.20;4.37;;;;;;;;;;5028754;28;38549;-79
2021/03/12 11:47:14;;;;;;;22.50;5.40;;;;;;;;;;5027782;28;38216;-78
2021/03/12 11:49:44;;;;;;;24.93;4.73;;;;;;;;;;5026433;28;37918;-78
2021/03/12 11:52:10;;;;;;;20.77;4.73;;;;;;;;;;5038240;28;39787;-77
2021/03/12 11:54:37;;;;;;;21.90;5.60;;;;;;;;;;5028915;28;39056;-77
2021/03/12 11:57:03;;;;;;;16.53;4.10;;;;;;;;;;5046526;28;39949;-77
2021/03/12 11:59:30;;;;;;;19.10;4.63;;;;;;;;;;5018769;28;37987;-77
2021/03/12 12:01:58;;;;;;;16.93;3.83;;;;;;;;;;5051471;28;40880;-77
2021/03/12 12:04:25;;;;;;;23.37;4.60;;;;;;;;;;5052744;28;38916;-75
2021/03/12 12:06:51;;;;;;;23.63;4.50;;;;;;;;;;5059276;28;39013;-76
2021/03/12 12:09:18;;;;;;;21.00;4.10;;;;;;;;;;5021046;28;37238;-78
2021/03/12 12:11:44;;;;;;;22.53;5.20;;;;;;;;;;5051844;28;39076;-75
2021/03/12 12:14:10;;;;;;;13.50;3.60;;;;;;;;;;5051440;28;38409;-78
2021/03/12 12:16:37;;;;;;;21.20;5.20;;;;;;;;;;5024907;28;38181;-76
2021/03/12 12:19:14;;;;;;;26.87;4.90;;;;;;;;;;5023106;28;37085;-76
2021/03/12 12:21:41;;;;;;;24.20;4.67;;;;;;;;;;5056216;28;39962;-75
2021/03/12 12:24:08;;;;;;;22.23;4.77;;;;;;;;;;5034859;28;38896;-79
2021/03/12 12:26:34;;;;;;;22.07;4.13;;;;;;;;;;5023846;28;37495;-81
2021/03/12 12:29:03;;;;;;;18.73;4.57;;;;;;;;;;5024657;28;35938;-80
2021/03/12 12:31:30;;;;;;;21.17;4.17;;;;;;;;;;5024532;28;48290;-81
2021/03/12 12:33:57;;;;;;;19.93;3.97;;;;;;;;;;5025814;28;39230;-78
2021/03/12 12:36:25;;;;;;;25.50;4.20;;;;;;;;;;5023609;28;37480;-82
2021/03/12 12:38:53;;;;;;;23.63;4.43;;;;;;;;;;5021179;28;36074;-79
2021/03/12 12:41:20;;;;;;;25.03;5.37;;;;;;;;;;5021954;28;38967;-79
2021/03/12 12:43:47;;;;;;;22.00;4.77;;;;;;;;;;5024446;28;39090;-77
2021/03/12 12:46:13;;;;;;;22.80;5.03;;;;;;;;;;5024954;28;38247;-80
2021/03/12 12:48:40;;;;;;;28.37;5.70;;;;;;;;;;5027362;28;36020;-81
2021/03/12 12:51:06;;;;;;;25.50;5.17;;;;;;;;;;5024994;28;37816;-76
2021/03/12 12:53:33;;;;;;;27.37;5.37;;;;;;;;;;5024394;28;38386;-79
2021/03/12 12:56:00;;;;;;;22.07;4.23;;;;;;;;;;5025172;28;38457;-80
2021/03/12 12:58:26;;;;;;;19.23;4.23;;;;;;;;;;5022925;28;35605;-78
2021/03/12 13:00:53;;;;;;;15.30;4.00;;;;;;;;;;5026638;28;39333;-78
2021/03/12 13:03:20;;;;;;;17.03;2.93;;;;;;;;;;5061514;28;37512;-80
2021/03/12 13:05:46;;;;;;;15.17;3.00;;;;;;;;;;5030735;28;37270;-78
2021/03/12 13:08:13;;;;;;;13.87;3.07;;;;;;;;;;5024506;28;36703;-80
2021/03/12 13:10:40;;;;;;;13.67;3.00;;;;;;;;;;5019558;28;37288;-76
2021/03/12 13:13:06;;;;;;;22.43;3.93;;;;;;;;;;5034558;28;37593;-79
2021/03/12 13:15:33;;;;;;;19.50;3.97;;;;;;;;;;5020696;28;39376;-77
2021/03/12 13:17:59;;;;;;;17.90;2.80;;;;;;;;;;5042163;28;38146;-78
2021/03/12 13:20:30;;;;;;;19.20;2.70;;;;;;;;;;5041055;28;39713;-79
2021/03/12 13:22:57;;;;;;;13.90;2.83;;;;;;;;;;5040883;28;38327;-74
2021/03/12 13:25:23;;;;;;;7.53;1.93;;;;;;;;;;5051208;28;36890;-78
2021/03/12 13:27:50;;;;;;;13.17;1.60;;;;;;;;;;5037855;28;35987;-78
2021/03/12 13:30:18;;;;;;;10.60;1.93;;;;;;;;;;5058701;27;39584;-76
2021/03/12 13:32:45;;;;;;;8.00;1.53;;;;;;;;;;5059439;27;39143;-77
2021/03/12 13:35:12;;;;;;;8.53;1.10;;;;;;;;;;5040659;28;38759;-75
2021/03/12 13:37:40;;;;;;;7.93;1.20;;;;;;;;;;5037450;28;37183;-75
2021/03/12 13:40:08;;;;;;;8.07;1.50;;;;;;;;;;5048516;27;39551;-76
2021/03/12 13:42:34;;;;;;;11.00;1.90;;;;;;;;;;5043258;28;39326;-76
2021/03/12 13:45:01;;;;;;;8.87;1.60;;;;;;;;;;5061371;27;38841;-79
2021/03/12 13:47:27;;;;;;;9.30;2.07;;;;;;;;;;5033329;28;37378;-76
2021/03/12 13:49:53;;;;;;;10.63;2.10;;;;;;;;;;5053938;27;39822;-81
2021/03/12 13:52:20;;;;;;;8.83;2.03;;;;;;;;;;5037850;28;38787;-74
2021/03/12 13:54:46;;;;;;;12.67;1.73;;;;;;;;;;5040187;28;37197;-79
2021/03/12 13:57:12;;;;;;;10.63;1.50;;;;;;;;;;5039569;28;37075;-78
2021/03/12 13:59:39;;;;;;;9.23;1.57;;;;;;;;;;5042866;28;39030;-77
2021/03/12 14:02:05;;;;;;;7.80;1.40;;;;;;;;;;5038823;28;37693;-78
2021/03/12 14:04:32;;;;;;;4.50;1.13;;;;;;;;;;5041561;28;38417;-77
2021/03/12 14:06:59;;;;;;;7.17;1.43;;;;;;;;;;5034090;28;37919;-77
2021/03/12 14:09:25;;;;;;;5.67;0.93;;;;;;;;;;5023551;28;40474;-76
2021/03/12 14:11:51;;;;;;;10.47;1.57;;;;;;;;;;5012865;28;38887;-78
2021/03/12 14:14:18;;;;;;;6.73;1.50;;;;;;;;;;5021949;28;38232;-75
2021/03/12 14:16:45;;;;;;;5.13;1.17;;;;;;;;;;5020982;28;37417;-78
2021/03/12 14:19:12;;;;;;;5.77;0.83;;;;;;;;;;5018140;28;38896;-77
2021/03/12 14:21:39;;;;;;;4.33;1.00;;;;;;;;;;5022862;28;38775;-81
2021/03/12 14:24:05;;;;;;;5.10;1.07;;;;;;;;;;5015141;28;37680;-80
2021/03/12 14:26:32;;;;;;;5.73;1.00;;;;;;;;;;5017251;28;37250;-78
2021/03/12 14:28:58;;;;;;;6.83;1.10;;;;;;;;;;5051573;28;40622;-75
2021/03/12 14:31:25;;;;;;;3.87;0.80;;;;;;;;;;5021968;28;39329;-76
2021/03/12 14:33:51;;;;;;;6.67;1.87;;;;;;;;;;5035264;28;39181;-75
2021/03/12 14:36:17;;;;;;;5.97;1.77;;;;;;;;;;5020394;28;36726;-74